Pagina principală
METAR-TAF:

METAR-TAF

Aeroporturi :

Meadow Lake, Saskatchewan, Canada

Latitudine: 54-08N, longitudine: 108-31W, elevație: 480 m

Observații meteo curente

Raportul a fost făcut în urmă cu 52 de minute, la 22:00 UTC
Vânt 6 kt de la Vest/Sud-vest, variabil între Sud și Vest
Temperatură 24°C
Umiditate 44%
Presiune 1012 hPa
Vizibilitate: 24.1 km
Nori împrăștiați la o înălțime de 5200 picior, Cumulonimbus.
Nori fragmentați la o înălțime de 21000 picior

METAR: CYLJ 222200Z 24006KT 190V280 15SM SCT052CB BKN210 24/11 A2987 RMK CB4CI1 CB E-S SLP121 DENSITY ALT 3100FT

Ora: 16:52 (22:52 UTC)


TAF: lipsă

Observații și prognoze meteo pentru peste 4.000 de aeroporturi (rapoarte METAR și TAF).

Stațiile disponibile sunt reprezentate pe hartă prin puncte galbene și roșii.

Țineți indicatorul mouse-ului pe punctul dorit pentru a vedea denumirea stației.

Apoi, faceți clic pentru a vedea observațiile și prognozele meteorologice.

Pentru a schimba harta: Pentru mărire, faceți clic pe butoanele verzi cu cruce neagră; pentru micșorare, pe butonul verde cu o liniuță; pentru hărți învecinate, pe săgețile verzi.


METAR-TAF: